Time;durP1;ratioP1;P1;durP2;ratioP2;P2;SDS_P1;SDS_P2;PMS_P1;PMS_P2;Temp;Humidity;BMP_temperature;BMP_pressure;BME280_temperature;BME280_humidity;BME280_pressure;Samples;Min_cycle;Max_cycle;Signal;HPM_P1;HPM_P2
2023/08/18 00:01:52;;;;;;;6.13;4.10;;;20.70;98.00;;;;;;5053897;28;20568;-68
2023/08/18 00:04:19;;;;;;;11.40;4.50;;;20.70;98.00;;;;;;5053393;28;20555;-68
2023/08/18 00:06:47;;;;;;;8.90;4.60;;;20.60;98.00;;;;;;5053625;28;20923;-68
2023/08/18 00:09:14;;;;;;;9.70;4.37;;;20.40;98.00;;;;;;5053376;28;20458;-68
2023/08/18 00:11:41;;;;;;;8.23;4.20;;;20.30;98.00;;;;;;5053639;28;20457;-68
2023/08/18 00:14:11;;;;;;;7.70;4.40;;;20.20;98.00;;;;;;5053348;28;21006;-68
2023/08/18 00:16:38;;;;;;;8.10;4.50;;;20.20;98.00;;;;;;5053405;28;20449;-68
2023/08/18 00:19:05;;;;;;;6.80;4.17;;;20.20;98.00;;;;;;5051114;28;20851;-68
2023/08/18 00:21:32;;;;;;;6.87;3.93;;;20.10;98.00;;;;;;5052084;28;20490;-68
2023/08/18 00:23:59;;;;;;;6.43;4.17;;;20.20;98.00;;;;;;5053168;28;20990;-68
2023/08/18 00:26:26;;;;;;;9.53;4.83;;;20.40;98.00;;;;;;5053380;28;20454;-68
2023/08/18 00:28:53;;;;;;;8.50;4.43;;;20.50;98.00;;;;;;5053223;28;20808;-68
2023/08/18 00:31:21;;;;;;;7.17;4.30;;;20.40;98.00;;;;;;5053209;28;20454;-68
2023/08/18 00:33:48;;;;;;;9.60;4.37;;;20.40;98.00;;;;;;5053216;28;20492;-68
2023/08/18 00:36:16;;;;;;;9.40;4.20;;;20.40;98.00;;;;;;5053332;28;20966;-68
2023/08/18 00:38:43;;;;;;;8.03;4.23;;;20.40;98.00;;;;;;5051915;28;20504;-68
2023/08/18 00:41:10;;;;;;;8.07;3.93;;;20.60;98.00;;;;;;5053131;28;20971;-68
2023/08/18 00:43:37;;;;;;;8.90;4.67;;;20.50;98.00;;;;;;5053144;28;20457;-68
2023/08/18 00:46:05;;;;;;;6.80;3.97;;;20.60;98.00;;;;;;5053130;28;20844;-68
2023/08/18 00:48:33;;;;;;;5.80;3.90;;;20.60;98.00;;;;;;5053236;28;20477;-68
2023/08/18 00:51:01;;;;;;;7.43;3.90;;;20.70;98.00;;;;;;5052921;28;20520;-68
2023/08/18 00:53:30;;;;;;;6.83;4.00;;;20.50;98.00;;;;;;5052723;28;20457;-68
2023/08/18 00:55:58;;;;;;;6.33;4.00;;;20.50;98.00;;;;;;5051589;28;21011;-68
2023/08/18 00:58:25;;;;;;;10.17;4.40;;;20.50;98.00;;;;;;5052688;28;20944;-68
2023/08/18 01:00:52;;;;;;;6.13;3.67;;;20.40;98.00;;;;;;5052648;28;20454;-68
2023/08/18 01:03:19;;;;;;;8.00;3.80;;;20.30;98.00;;;;;;5052698;28;20453;-68
2023/08/18 01:05:48;;;;;;;7.07;3.87;;;20.40;98.00;;;;;;5052625;28;20547;-68
2023/08/18 01:08:15;;;;;;;6.13;3.73;;;20.40;98.00;;;;;;5052688;28;20918;-68
2023/08/18 01:10:51;;;;;;;7.70;4.20;;;20.30;98.00;;;;;;5052691;28;20823;-68
2023/08/18 01:13:28;;;;;;;6.93;4.00;;;20.30;98.00;;;;;;5052542;28;20457;-68
2023/08/18 01:15:57;;;;;;;9.63;3.70;;;20.40;98.00;;;;;;5052300;28;20458;-68
2023/08/18 01:18:26;;;;;;;8.70;4.10;;;20.40;98.00;;;;;;5051195;28;20462;-68
2023/08/18 01:20:57;;;;;;;6.00;4.03;;;20.30;98.00;;;;;;5052245;28;20456;-68
2023/08/18 01:23:37;;;;;;;5.47;3.40;;;20.40;98.00;;;;;;5051097;28;20462;-68
2023/08/18 01:26:04;;;;;;;8.43;4.00;;;20.30;98.00;;;;;;5052265;28;20904;-68
2023/08/18 01:28:31;;;;;;;10.43;4.10;;;20.20;98.00;;;;;;5052314;28;20468;-68
2023/08/18 01:31:00;;;;;;;7.77;4.37;;;20.10;98.00;;;;;;5050750;28;20520;-68
2023/08/18 01:33:35;;;;;;;6.87;3.77;;;20.00;98.00;;;;;;5052267;28;20450;-68
2023/08/18 01:36:07;;;;;;;7.43;3.50;;;20.00;98.00;;;;;;5052262;28;20457;-68
2023/08/18 01:38:36;;;;;;;7.03;4.30;;;20.00;98.00;;;;;;5052107;28;20469;-68
2023/08/18 01:41:06;;;;;;;5.50;3.47;;;19.80;98.00;;;;;;5052220;28;20450;-68
2023/08/18 01:43:33;;;;;;;13.10;4.47;;;19.70;98.00;;;;;;5051978;28;20481;-68
2023/08/18 01:46:01;;;;;;;9.20;3.93;;;19.50;98.00;;;;;;5051272;28;20827;-68
2023/08/18 01:48:28;;;;;;;5.80;3.60;;;19.60;98.00;;;;;;5051943;28;20548;-68
2023/08/18 01:50:56;;;;;;;8.27;3.83;;;19.50;98.00;;;;;;5051713;28;20446;-68
2023/08/18 01:53:23;;;;;;;11.60;3.90;;;19.50;98.00;;;;;;5051641;28;20457;-68
2023/08/18 01:55:54;;;;;;;10.23;3.53;;;19.40;98.00;;;;;;5051824;28;20919;-68
2023/08/18 01:58:21;;;;;;;9.33;4.20;;;19.40;98.00;;;;;;5051612;28;20461;-68
2023/08/18 02:00:53;;;;;;;7.13;3.70;;;19.30;98.00;;;;;;5051649;28;20460;-68
2023/08/18 02:03:20;;;;;;;5.37;3.57;;;19.40;98.00;;;;;;5051685;28;20946;-68
2023/08/18 02:05:47;;;;;;;6.80;3.50;;;19.30;98.00;;;;;;5051655;28;20508;-68
2023/08/18 02:08:14;;;;;;;7.97;3.70;;;19.40;98.00;;;;;;5051611;28;20465;-68
2023/08/18 02:10:41;;;;;;;5.50;3.90;;;19.30;98.00;;;;;;5051125;28;20458;-68
2023/08/18 02:13:10;;;;;;;6.17;3.47;;;19.30;98.00;;;;;;5051624;28;20456;-68
2023/08/18 02:15:37;;;;;;;6.33;3.73;;;19.30;98.00;;;;;;5051361;28;20494;-68
2023/08/18 02:18:05;;;;;;;14.83;4.27;;;19.40;98.00;;;;;;5051593;28;20461;-68
2023/08/18 02:20:32;;;;;;;4.80;3.13;;;19.40;98.00;;;;;;5050441;28;20555;-68
2023/08/18 02:23:08;;;;;;;6.07;3.97;;;19.40;98.00;;;;;;5051762;28;20461;-68
2023/08/18 02:25:35;;;;;;;8.80;3.93;;;19.20;98.00;;;;;;5051600;28;20485;-68
2023/08/18 02:28:02;;;;;;;9.00;4.10;;;19.20;98.00;;;;;;5051518;28;20469;-68
2023/08/18 02:30:32;;;;;;;8.47;4.07;;;19.30;98.00;;;;;;5051633;28;20461;-68
2023/08/18 02:32:59;;;;;;;5.20;3.47;;;19.40;98.00;;;;;;5051715;28;20928;-68
2023/08/18 02:35:26;;;;;;;8.27;3.70;;;19.20;98.00;;;;;;5051742;28;20466;-68
2023/08/18 02:37:53;;;;;;;9.97;4.17;;;19.20;98.00;;;;;;5051492;28;20911;-68
2023/08/18 02:40:21;;;;;;;7.30;3.80;;;19.30;98.00;;;;;;5051213;28;20533;-68
2023/08/18 02:42:48;;;;;;;6.70;4.00;;;19.30;98.00;;;;;;5054281;28;20461;-68
2023/08/18 02:45:15;;;;;;;7.13;3.60;;;19.20;98.00;;;;;;5053739;28;20998;-68
2023/08/18 02:47:43;;;;;;;5.00;3.60;;;19.10;98.00;;;;;;5055212;28;20461;-68
2023/08/18 02:50:10;;;;;;;5.47;3.33;;;18.80;98.00;;;;;;5054680;28;20454;-68
2023/08/18 02:52:38;;;;;;;5.53;3.60;;;18.90;98.00;;;;;;5055234;28;20931;-68
2023/08/18 02:55:06;;;;;;;8.10;3.83;;;18.80;98.00;;;;;;5054892;28;20454;-68
2023/08/18 02:57:33;;;;;;;5.40;3.47;;;18.80;98.00;;;;;;5054779;28;20450;-68
2023/08/18 03:00:00;;;;;;;7.57;3.60;;;18.80;98.00;;;;;;5054787;28;20454;-68
2023/08/18 03:02:27;;;;;;;9.70;3.80;;;18.80;98.00;;;;;;5054872;28;20454;-68
2023/08/18 03:04:56;;;;;;;6.67;3.57;;;18.70;98.00;;;;;;5054559;28;20968;-68
2023/08/18 03:07:23;;;;;;;5.57;3.47;;;18.60;98.00;;;;;;5054946;28;20457;-68
2023/08/18 03:09:50;;;;;;;10.07;4.20;;;18.60;98.00;;;;;;5054796;28;20456;-68
2023/08/18 03:12:17;;;;;;;8.50;4.10;;;18.60;98.00;;;;;;5037257;28;20461;-68
2023/08/18 03:14:45;;;;;;;7.27;4.33;;;18.50;98.00;;;;;;5053603;28;20446;-68
2023/08/18 03:17:13;;;;;;;7.60;3.97;;;18.60;98.00;;;;;;5053848;28;20473;-68
2023/08/18 03:19:43;;;;;;;4.67;3.43;;;18.50;98.00;;;;;;5054714;28;20450;-68
2023/08/18 03:22:12;;;;;;;7.17;3.90;;;18.40;98.00;;;;;;5054895;28;20453;-68
2023/08/18 03:24:39;;;;;;;6.07;4.03;;;18.40;98.00;;;;;;5054679;28;20504;-68
2023/08/18 03:27:06;;;;;;;9.20;3.47;;;18.40;98.00;;;;;;5054746;28;20948;-68
2023/08/18 03:29:33;;;;;;;6.83;3.83;;;18.50;98.00;;;;;;5054186;28;20453;-68
2023/08/18 03:32:00;;;;;;;7.73;3.80;;;18.60;98.00;;;;;;5054501;28;20460;-68
2023/08/18 03:34:28;;;;;;;5.40;3.57;;;18.60;98.00;;;;;;5052677;28;20819;-68
2023/08/18 03:36:59;;;;;;;8.03;3.63;;;18.50;98.00;;;;;;5053989;28;20469;-68
2023/08/18 03:39:28;;;;;;;5.57;3.47;;;18.40;98.00;;;;;;5053790;28;20462;-68
2023/08/18 03:41:55;;;;;;;6.03;3.90;;;18.40;98.00;;;;;;5054205;28;20450;-68
2023/08/18 03:44:22;;;;;;;7.90;3.80;;;18.40;98.00;;;;;;5053789;28;20993;-68
2023/08/18 03:46:49;;;;;;;7.37;4.13;;;18.40;98.00;;;;;;5052741;28;20485;-68
2023/08/18 03:49:16;;;;;;;5.90;3.30;;;18.30;98.00;;;;;;5053791;28;20467;-68
2023/08/18 03:51:43;;;;;;;5.83;3.80;;;18.10;98.00;;;;;;5054152;28;20481;-68
2023/08/18 03:54:11;;;;;;;7.50;3.30;;;18.20;98.00;;;;;;5053644;28;20461;-68
2023/08/18 03:56:40;;;;;;;6.67;4.07;;;18.20;98.00;;;;;;5053314;28;20450;-68
2023/08/18 03:59:07;;;;;;;7.07;3.50;;;18.10;98.00;;;;;;5052670;28;20454;-68
2023/08/18 04:01:34;;;;;;;8.07;4.17;;;18.00;98.00;;;;;;5053883;28;20454;-68
2023/08/18 04:04:01;;;;;;;6.97;4.17;;;17.90;98.00;;;;;;5053471;28;20450;-68
2023/08/18 04:06:28;;;;;;;7.60;4.07;;;17.90;98.00;;;;;;5053717;28;20826;-68
2023/08/18 04:09:06;;;;;;;11.83;4.10;;;18.00;98.00;;;;;;5053726;28;20472;-68
2023/08/18 04:11:33;;;;;;;6.90;4.00;;;18.10;98.00;;;;;;5053616;28;20457;-68
2023/08/18 04:14:02;;;;;;;8.50;3.77;;;18.20;98.00;;;;;;5053427;28;20861;-68
2023/08/18 04:16:31;;;;;;;6.87;3.60;;;18.20;98.00;;;;;;5053706;28;20508;-68
2023/08/18 04:18:58;;;;;;;8.40;3.40;;;18.20;98.00;;;;;;5053634;28;20828;-68
2023/08/18 04:21:25;;;;;;;5.80;3.70;;;18.10;98.00;;;;;;5053843;28;20521;-68
2023/08/18 04:23:52;;;;;;;5.80;3.47;;;18.20;98.00;;;;;;5053590;28;20859;-68
2023/08/18 04:26:20;;;;;;;9.00;3.30;;;18.30;98.00;;;;;;5053268;28;20493;-68
2023/08/18 04:28:47;;;;;;;5.23;3.63;;;18.30;98.00;;;;;;5053251;28;20464;-68
2023/08/18 04:31:15;;;;;;;3.93;2.90;;;18.30;98.00;;;;;;5053118;28;20466;-68
2023/08/18 04:33:52;;;;;;;6.10;3.40;;;18.20;98.00;;;;;;5053052;28;20461;-68
2023/08/18 04:36:19;;;;;;;7.63;3.60;;;18.10;98.00;;;;;;5053084;28;20523;-68
2023/08/18 04:38:46;;;;;;;7.60;3.37;;;18.10;98.00;;;;;;5052635;28;20453;-68
2023/08/18 04:41:13;;;;;;;4.80;3.27;;;18.20;98.00;;;;;;5052972;28;20851;-68
2023/08/18 04:43:40;;;;;;;4.50;3.13;;;18.30;98.00;;;;;;5053023;28;20481;-68
2023/08/18 04:46:07;;;;;;;6.17;3.80;;;18.30;98.00;;;;;;5052728;28;20486;-68
2023/08/18 04:48:36;;;;;;;8.27;3.77;;;18.40;98.00;;;;;;5051774;28;20458;-68
2023/08/18 04:51:03;;;;;;;9.50;4.20;;;18.40;98.00;;;;;;5052647;28;20458;-68
2023/08/18 04:53:31;;;;;;;6.90;3.50;;;18.60;98.00;;;;;;5051658;28;20458;-68
2023/08/18 04:56:01;;;;;;;6.00;3.87;;;18.60;98.00;;;;;;5051356;28;20446;-68
2023/08/18 04:58:29;;;;;;;5.20;3.53;;;18.60;98.00;;;;;;5052847;28;20875;-68
2023/08/18 05:00:56;;;;;;;6.30;3.80;;;18.30;98.00;;;;;;5051505;28;20462;-68
2023/08/18 05:03:23;;;;;;;8.77;3.63;;;18.30;98.00;;;;;;5052731;28;20843;-68
2023/08/18 05:06:03;;;;;;;7.20;4.00;;;18.20;98.00;;;;;;5051815;28;20478;-68
2023/08/18 05:08:30;;;;;;;7.77;4.17;;;18.20;98.00;;;;;;5052504;28;20948;-68
2023/08/18 05:10:58;;;;;;;5.60;3.40;;;18.10;98.00;;;;;;5052555;28;20987;-68
2023/08/18 05:13:26;;;;;;;5.70;3.70;;;18.10;98.00;;;;;;5052684;28;21100;-68
2023/08/18 05:15:53;;;;;;;10.13;4.43;;;18.20;98.00;;;;;;5052626;28;20457;-68
2023/08/18 05:18:21;;;;;;;11.83;3.90;;;18.10;98.00;;;;;;5052389;28;20485;-68
2023/08/18 05:20:48;;;;;;;10.00;4.00;;;18.10;98.00;;;;;;5052319;28;20477;-68
2023/08/18 05:23:17;;;;;;;8.63;4.50;;;18.10;98.00;;;;;;5052003;28;20458;-68
2023/08/18 05:25:45;;;;;;;10.10;4.33;;;18.10;98.00;;;;;;5052295;28;20528;-68
2023/08/18 05:28:13;;;;;;;8.50;3.83;;;18.10;98.00;;;;;;5052072;28;20512;-68
2023/08/18 05:30:47;;;;;;;8.27;5.00;;;18.00;98.00;;;;;;5052061;28;20489;-68
2023/08/18 05:33:15;;;;;;;7.30;3.80;;;18.00;98.00;;;;;;5051320;28;20449;-68
2023/08/18 05:35:43;;;;;;;8.47;4.60;;;18.10;98.00;;;;;;5051933;28;20958;-68
2023/08/18 05:38:11;;;;;;;4.90;3.23;;;18.30;98.00;;;;;;5051757;28;20466;-68
2023/08/18 05:40:42;;;;;;;8.73;4.30;;;18.30;98.00;;;;;;5051983;28;20458;-68
2023/08/18 05:43:09;;;;;;;8.50;3.87;;;18.30;98.00;;;;;;5052024;28;20538;-64
2023/08/18 05:45:37;;;;;;;8.00;4.50;;;18.30;98.00;;;;;;5051478;28;20465;-64
2023/08/18 05:48:05;;;;;;;7.57;4.30;;;18.30;98.00;;;;;;5051923;28;20541;-64
2023/08/18 05:50:33;;;;;;;10.93;3.97;;;18.50;98.00;;;;;;5051682;28;20541;-64
2023/08/18 05:53:02;;;;;;;8.00;4.60;;;18.60;98.00;;;;;;5051751;28;20450;-64
2023/08/18 05:55:29;;;;;;;10.03;4.60;;;18.70;98.00;;;;;;5051870;28;20450;-64
2023/08/18 05:58:00;;;;;;;7.17;4.23;;;19.00;98.00;;;;;;5051645;28;20805;-64
2023/08/18 06:00:30;;;;;;;8.20;4.37;;;19.00;98.00;;;;;;5051758;28;21019;-64
2023/08/18 06:02:57;;;;;;;8.30;4.27;;;19.10;98.00;;;;;;5051897;28;20521;-64
2023/08/18 06:05:26;;;;;;;8.80;4.40;;;19.20;98.00;;;;;;5051896;28;20508;-64
2023/08/18 06:07:53;;;;;;;9.70;4.17;;;19.40;98.00;;;;;;5051044;28;20535;-64
2023/08/18 06:10:20;;;;;;;7.07;4.50;;;19.50;98.00;;;;;;5051719;28;20940;-64
2023/08/18 06:12:48;;;;;;;9.37;4.33;;;19.60;98.00;;;;;;5052043;28;20528;-64
2023/08/18 06:15:18;;;;;;;10.50;5.03;;;19.70;98.00;;;;;;5051699;28;20866;-64
2023/08/18 06:17:45;;;;;;;12.83;6.20;;;19.70;98.00;;;;;;5054621;28;20457;-64
2023/08/18 06:20:13;;;;;;;8.60;5.23;;;19.70;98.00;;;;;;5055555;28;20484;-65
2023/08/18 06:22:42;;;;;;;10.20;4.90;;;19.70;98.00;;;;;;5055489;28;20469;-64
2023/08/18 06:25:11;;;;;;;9.43;4.43;;;19.70;98.00;;;;;;5055338;28;20454;-64
2023/08/18 06:27:38;;;;;;;9.07;4.63;;;19.80;98.00;;;;;;5055391;28;20481;-64
2023/08/18 06:30:06;;;;;;;9.70;4.73;;;19.80;98.00;;;;;;5055508;28;20458;-64
2023/08/18 06:32:35;;;;;;;9.10;4.40;;;19.90;98.00;;;;;;5055630;28;20450;-64
2023/08/18 06:35:02;;;;;;;7.37;4.30;;;20.10;98.00;;;;;;5055406;28;20453;-64
2023/08/18 06:37:29;;;;;;;6.23;4.10;;;20.20;98.00;;;;;;5055217;28;20496;-64
2023/08/18 06:39:56;;;;;;;15.63;4.70;;;20.30;98.00;;;;;;5054124;28;20983;-64
2023/08/18 06:42:24;;;;;;;7.00;4.13;;;20.40;98.00;;;;;;5055460;28;20536;-64
2023/08/18 06:44:51;;;;;;;8.70;4.17;;;20.60;98.00;;;;;;5055442;28;20452;-64
2023/08/18 06:47:18;;;;;;;7.63;4.50;;;20.70;98.00;;;;;;5054991;28;20482;-64
2023/08/18 06:49:46;;;;;;;11.53;4.97;;;20.80;98.00;;;;;;5055296;28;20446;-64
2023/08/18 06:52:13;;;;;;;7.93;4.47;;;20.70;98.00;;;;;;5054209;28;20461;-64
2023/08/18 06:54:40;;;;;;;8.10;4.60;;;20.70;98.00;;;;;;5053807;28;20449;-64
2023/08/18 06:57:07;;;;;;;7.77;4.50;;;20.70;98.00;;;;;;5053858;28;20461;-64
2023/08/18 06:59:34;;;;;;;8.97;4.40;;;20.80;98.00;;;;;;5054127;28;20453;-64
2023/08/18 07:02:04;;;;;;;6.93;3.60;;;20.90;98.00;;;;;;5054213;28;20773;-64
2023/08/18 07:04:31;;;;;;;7.13;3.73;;;21.00;98.00;;;;;;5054159;28;20461;-62
2023/08/18 07:07:07;;;;;;;4.37;3.40;;;21.30;98.00;;;;;;5054092;28;20515;-62
2023/08/18 07:09:34;;;;;;;7.53;4.10;;;21.60;98.00;;;;;;5053116;28;20874;-62
2023/08/18 07:12:01;;;;;;;9.70;3.77;;;21.80;98.00;;;;;;5054043;28;20444;-61
2023/08/18 07:14:28;;;;;;;7.53;3.57;;;21.90;98.00;;;;;;5053921;28;20457;-62
2023/08/18 07:16:55;;;;;;;4.30;3.07;;;22.00;98.00;;;;;;5053743;28;20453;-61
2023/08/18 07:19:22;;;;;;;5.73;3.40;;;22.20;98.00;;;;;;5053702;28;20450;-62
2023/08/18 07:21:49;;;;;;;6.23;3.80;;;22.40;98.00;;;;;;5053703;28;20504;-62
2023/08/18 07:24:18;;;;;;;6.80;3.80;;;22.70;98.00;;;;;;5053446;28;20454;-62
2023/08/18 07:26:45;;;;;;;7.63;3.50;;;22.80;98.00;;;;;;5053123;28;20484;-62
2023/08/18 07:29:16;;;;;;;4.93;3.40;;;22.80;98.00;;;;;;5053189;28;20442;-62
2023/08/18 07:31:43;;;;;;;10.20;3.80;;;22.90;98.00;;;;;;5052431;28;20461;-62
2023/08/18 07:34:10;;;;;;;6.00;3.77;;;23.00;98.00;;;;;;5053500;28;20453;-63
2023/08/18 07:36:38;;;;;;;6.40;3.70;;;23.10;98.00;;;;;;5053242;28;20480;-62
2023/08/18 07:39:10;;;;;;;5.83;3.53;;;23.10;98.00;;;;;;5053430;28;20446;-62
2023/08/18 07:41:40;;;;;;;5.63;3.70;;;23.20;98.00;;;;;;5053349;28;20449;-63
2023/08/18 07:44:08;;;;;;;6.50;3.67;;;23.30;98.00;;;;;;5052882;28;20842;-62
2023/08/18 07:46:35;;;;;;;5.53;3.40;;;23.30;98.00;;;;;;5052326;28;20481;-62
2023/08/18 07:49:02;;;;;;;9.00;3.80;;;23.20;98.00;;;;;;5053253;28;20469;-62
2023/08/18 07:51:30;;;;;;;8.80;3.73;;;23.20;98.00;;;;;;5053529;28;20508;-63
2023/08/18 07:53:57;;;;;;;5.73;3.50;;;23.30;98.00;;;;;;5035560;28;20486;-69
2023/08/18 07:56:25;;;;;;;4.70;3.40;;;23.50;98.00;;;;;;5053633;28;20457;-62
2023/08/18 07:58:54;;;;;;;9.17;4.07;;;23.60;98.00;;;;;;5053770;28;20465;-63
2023/08/18 08:01:21;;;;;;;4.17;3.13;;;23.70;98.00;;;;;;5052404;28;20492;-62
2023/08/18 08:03:48;;;;;;;7.40;3.70;;;23.80;98.00;;;;;;5053579;28;20889;-62
2023/08/18 08:06:15;;;;;;;10.17;3.33;;;23.90;98.00;;;;;;5053246;28;20596;-62
2023/08/18 08:08:42;;;;;;;7.43;3.43;;;24.00;98.00;;;;;;5053345;28;20959;-62
2023/08/18 08:11:09;;;;;;;3.97;2.80;;;24.00;98.00;;;;;;5053277;28;20462;-63
2023/08/18 08:13:36;;;;;;;4.30;3.03;;;24.10;98.00;;;;;;5053009;28;20451;-63
2023/08/18 08:16:05;;;;;;;7.43;3.30;;;24.30;98.00;;;;;;5052917;28;20453;-62
2023/08/18 08:18:34;;;;;;;6.70;2.90;;;24.40;98.00;;;;;;5053183;28;21031;-63
2023/08/18 08:21:02;;;;;;;6.90;3.43;;;24.70;98.00;;;;;;5052291;28;20458;-62
2023/08/18 08:23:29;;;;;;;6.33;3.13;;;24.90;98.00;;;;;;5053175;28;20511;-64
2023/08/18 08:25:57;;;;;;;5.23;3.30;;;24.90;98.00;;;;;;5052941;28;20592;-65
2023/08/18 08:28:24;;;;;;;4.23;3.17;;;25.00;98.00;;;;;;5053242;28;20548;-65
2023/08/18 08:30:54;;;;;;;6.20;3.20;;;25.20;98.00;;;;;;5052959;28;20476;-65
2023/08/18 08:33:22;;;;;;;4.70;3.20;;;25.30;98.00;;;;;;5053063;28;20457;-64
2023/08/18 08:35:49;;;;;;;4.80;3.17;;;25.40;98.00;;;;;;5052845;28;20505;-62
2023/08/18 08:38:16;;;;;;;4.03;2.90;;;25.60;98.00;;;;;;5052550;28;20461;-65
2023/08/18 08:40:44;;;;;;;4.87;2.57;;;25.80;98.00;;;;;;5051935;28;20450;-65
2023/08/18 08:43:11;;;;;;;5.33;2.90;;;25.90;98.00;;;;;;5052345;28;20457;-65
2023/08/18 08:45:39;;;;;;;6.27;3.00;;;26.10;98.00;;;;;;5052170;28;20446;-65
2023/08/18 08:48:11;;;;;;;3.80;2.63;;;26.20;98.00;;;;;;5052066;28;20567;-64
2023/08/18 08:50:45;;;;;;;3.03;2.50;;;26.30;98.00;;;;;;5051921;28;20498;-64
2023/08/18 08:53:14;;;;;;;3.93;2.53;;;26.40;98.00;;;;;;5051940;28;20457;-65
2023/08/18 08:55:43;;;;;;;2.80;2.33;;;26.60;98.00;;;;;;5050879;28;21095;-65
2023/08/18 08:58:12;;;;;;;3.80;2.80;;;26.70;98.00;;;;;;5052854;28;20825;-65
2023/08/18 09:00:39;;;;;;;3.57;2.53;;;26.90;98.00;;;;;;5052204;28;20537;-64
2023/08/18 09:03:07;;;;;;;4.00;2.73;;;27.00;98.00;;;;;;5051618;28;20453;-64
2023/08/18 09:05:34;;;;;;;3.50;2.60;;;27.10;98.00;;;;;;5051751;28;20441;-64
2023/08/18 09:08:04;;;;;;;3.97;3.03;;;27.20;98.00;;;;;;5051660;28;20995;-64
2023/08/18 09:10:33;;;;;;;3.70;2.60;;;27.30;98.00;;;;;;5050371;28;20537;-64
2023/08/18 09:13:00;;;;;;;3.57;2.67;;;27.40;98.00;;;;;;5051466;28;20542;-64
2023/08/18 09:15:27;;;;;;;5.00;3.00;;;27.60;98.00;;;;;;5051701;28;20539;-64
2023/08/18 09:17:54;;;;;;;3.70;2.60;;;27.70;98.00;;;;;;5051186;28;20453;-65
2023/08/18 09:20:23;;;;;;;4.50;2.87;;;27.90;98.00;;;;;;5051009;28;20461;-64
2023/08/18 09:22:55;;;;;;;5.00;2.60;;;28.00;98.00;;;;;;5051305;28;20465;-68
2023/08/18 09:25:24;;;;;;;4.93;2.90;;;28.10;98.00;;;;;;5051360;28;20461;-64
2023/08/18 09:27:51;;;;;;;2.60;2.30;;;28.10;98.00;;;;;;5051212;28;20486;-64
2023/08/18 09:30:18;;;;;;;3.60;2.67;;;28.20;98.00;;;;;;5051177;28;20839;-64
2023/08/18 09:32:46;;;;;;;3.53;2.73;;;28.40;98.00;;;;;;5050077;28;21070;-63
2023/08/18 09:35:13;;;;;;;5.60;2.70;;;28.50;98.00;;;;;;5049973;28;20458;-63
2023/08/18 09:37:40;;;;;;;3.23;2.30;;;28.60;98.00;;;;;;5050872;28;20454;-63
2023/08/18 09:40:08;;;;;;;5.10;2.77;;;28.70;98.00;;;;;;5050355;28;21003;-65
2023/08/18 09:42:37;;;;;;;3.20;2.60;;;28.70;98.00;;;;;;5050206;28;20492;-72
2023/08/18 09:45:04;;;;;;;3.93;2.60;;;28.90;98.00;;;;;;5051225;28;20449;-71
2023/08/18 09:47:34;;;;;;;5.40;2.70;;;29.00;98.00;;;;;;5051773;28;20489;-72
2023/08/18 09:50:04;;;;;;;3.50;2.63;;;29.20;98.00;;;;;;5051410;28;20454;-72
2023/08/18 09:52:34;;;;;;;4.10;2.60;;;29.30;98.00;;;;;;5051971;28;20446;-70
2023/08/18 09:55:08;;;;;;;2.60;2.13;;;29.40;97.80;;;;;;5051466;28;20449;-68
2023/08/18 09:57:44;;;;;;;5.13;2.53;;;29.50;97.00;;;;;;5050726;28;20449;-65
2023/08/18 10:00:14;;;;;;;4.00;2.37;;;29.70;98.00;;;;;;5050930;28;20480;-66
2023/08/18 10:02:44;;;;;;;8.40;2.50;;;29.80;97.50;;;;;;5050778;28;20487;-67
2023/08/18 10:05:13;;;;;;;2.73;2.23;;;29.90;97.50;;;;;;5050540;28;20536;-66
2023/08/18 10:07:41;;;;;;;3.37;2.57;;;30.10;96.70;;;;;;5050675;28;20862;-65
2023/08/18 10:10:09;;;;;;;3.80;2.50;;;30.20;96.80;;;;;;5050774;28;20461;-66
2023/08/18 10:12:38;;;;;;;3.73;2.17;;;30.30;95.80;;;;;;5050948;28;20476;-66
2023/08/18 10:15:06;;;;;;;2.37;2.17;;;30.50;95.20;;;;;;5050740;28;20446;-66
2023/08/18 10:17:33;;;;;;;2.90;2.10;;;30.60;95.10;;;;;;5050745;28;20477;-66
2023/08/18 10:20:04;;;;;;;3.43;2.20;;;30.70;93.10;;;;;;5050837;28;20454;-66
2023/08/18 10:22:33;;;;;;;3.60;2.27;;;30.90;94.00;;;;;;5050800;28;20553;-66
2023/08/18 10:25:01;;;;;;;4.33;2.53;;;31.00;92.00;;;;;;5050631;28;20454;-66
2023/08/18 10:27:39;;;;;;;3.07;2.57;;;31.10;92.00;;;;;;5049280;28;20602;-66
2023/08/18 10:30:29;;;;;;;3.60;2.23;;;31.20;92.00;;;;;;5050677;28;20842;-66
2023/08/18 10:33:03;;;;;;;3.00;2.20;;;31.40;91.90;;;;;;5049377;28;20821;-66
2023/08/18 10:35:31;;;;;;;2.17;2.07;;;31.50;88.40;;;;;;5050648;28;20449;-66
2023/08/18 10:38:01;;;;;;;3.87;2.47;;;31.60;90.50;;;;;;5050469;28;20466;-66
2023/08/18 10:40:30;;;;;;;2.87;2.40;;;31.70;90.60;;;;;;5050688;28;20462;-66
2023/08/18 10:43:03;;;;;;;4.90;2.57;;;31.90;90.60;;;;;;5050572;28;20457;-66
2023/08/18 10:45:31;;;;;;;3.13;2.10;;;32.00;89.30;;;;;;5050432;28;20473;-66
2023/08/18 10:47:59;;;;;;;2.97;2.30;;;32.00;88.00;;;;;;5050485;28;20492;-66
2023/08/18 10:50:29;;;;;;;3.13;2.10;;;32.20;91.00;;;;;;5050399;28;20456;-66
2023/08/18 10:52:57;;;;;;;5.40;2.77;;;32.30;89.10;;;;;;5050735;28;20508;-66
2023/08/18 10:55:25;;;;;;;2.93;2.20;;;32.40;87.20;;;;;;5050664;28;20454;-65
2023/08/18 10:57:52;;;;;;;3.37;2.50;;;32.50;88.30;;;;;;5050566;28;20461;-66
2023/08/18 11:00:21;;;;;;;3.93;2.40;;;32.60;87.50;;;;;;5050700;28;20446;-64
2023/08/18 11:02:50;;;;;;;3.43;2.27;;;32.70;87.10;;;;;;5051802;28;20450;-65
2023/08/18 11:05:18;;;;;;;3.10;2.30;;;32.80;86.60;;;;;;5054143;28;20453;-66
2023/08/18 11:07:45;;;;;;;4.20;2.50;;;33.00;85.90;;;;;;5054038;28;20500;-65
2023/08/18 11:10:21;;;;;;;2.67;2.20;;;33.10;84.90;;;;;;5054023;28;20454;-64
2023/08/18 11:12:49;;;;;;;5.70;2.30;;;33.20;85.10;;;;;;5053074;28;21024;-65
2023/08/18 11:15:20;;;;;;;3.90;2.47;;;33.30;85.50;;;;;;5053939;28;20852;-65
2023/08/18 11:17:48;;;;;;;3.07;2.10;;;33.30;84.40;;;;;;5054044;28;20511;-65
2023/08/18 11:20:16;;;;;;;3.20;2.57;;;33.40;85.70;;;;;;5053893;28;20458;-65
2023/08/18 11:22:45;;;;;;;2.63;2.23;;;33.60;85.40;;;;;;5053974;28;20450;-65
2023/08/18 11:25:13;;;;;;;3.80;2.50;;;33.70;83.30;;;;;;5053796;28;20457;-65
2023/08/18 11:27:42;;;;;;;3.10;2.40;;;33.80;84.00;;;;;;5053811;28;20507;-65
2023/08/18 11:30:11;;;;;;;3.90;2.27;;;33.90;83.40;;;;;;5053636;28;20954;-64
2023/08/18 11:32:40;;;;;;;4.10;2.47;;;34.10;82.70;;;;;;5052668;28;20512;-65
2023/08/18 11:35:09;;;;;;;3.43;2.10;;;34.20;83.40;;;;;;5053624;28;20940;-64
2023/08/18 11:37:41;;;;;;;4.63;2.67;;;34.40;82.10;;;;;;5053479;28;20943;-65
2023/08/18 11:40:10;;;;;;;3.00;2.30;;;34.60;81.30;;;;;;5053543;28;20446;-64
2023/08/18 11:42:40;;;;;;;3.13;2.40;;;34.70;82.10;;;;;;5052402;28;20480;-64
2023/08/18 11:45:09;;;;;;;3.20;2.60;;;34.90;82.20;;;;;;5053471;28;20492;-65
2023/08/18 11:47:37;;;;;;;2.83;2.50;;;35.00;81.90;;;;;;5053560;28;20477;-64
2023/08/18 11:50:07;;;;;;;3.40;2.70;;;35.20;80.70;;;;;;5053608;28;20500;-63
2023/08/18 11:52:46;;;;;;;4.57;2.50;;;35.30;81.20;;;;;;5053726;28;20854;-63
2023/08/18 11:55:13;;;;;;;2.37;2.17;;;35.40;81.60;;;;;;5053481;28;20469;-63
2023/08/18 11:57:45;;;;;;;4.53;2.50;;;35.60;78.00;;;;;;5053188;28;20473;-63
2023/08/18 12:00:14;;;;;;;3.40;2.70;;;35.40;80.00;;;;;;5052961;28;20456;-63
2023/08/18 12:02:46;;;;;;;3.50;2.40;;;35.70;81.40;;;;;;5052607;28;20489;-62
2023/08/18 12:05:26;;;;;;;2.83;2.20;;;35.90;80.40;;;;;;5052102;28;20482;-62
2023/08/18 12:07:54;;;;;;;4.83;2.40;;;36.10;78.40;;;;;;5051309;28;20481;-63
2023/08/18 12:10:22;;;;;;;6.47;2.40;;;36.20;78.00;;;;;;5052958;28;20818;-63
2023/08/18 12:12:53;;;;;;;4.03;2.47;;;36.20;76.10;;;;;;5052930;28;20454;-63
2023/08/18 12:15:23;;;;;;;2.93;2.37;;;36.20;76.60;;;;;;5052785;28;20549;-63
2023/08/18 12:17:50;;;;;;;2.53;2.20;;;36.40;77.20;;;;;;5053016;28;20612;-63
2023/08/18 12:20:19;;;;;;;4.03;2.50;;;36.60;76.90;;;;;;5052780;28;20452;-62
2023/08/18 12:22:49;;;;;;;3.83;2.70;;;36.50;74.20;;;;;;5052846;28;21018;-63
2023/08/18 12:25:16;;;;;;;2.77;2.50;;;36.40;78.10;;;;;;5052525;28;20450;-62
2023/08/18 12:27:45;;;;;;;2.90;2.57;;;36.60;74.50;;;;;;5052562;28;20446;-63
2023/08/18 12:30:13;;;;;;;2.80;2.50;;;36.60;75.70;;;;;;5052451;28;20469;-62
2023/08/18 12:32:40;;;;;;;3.03;2.43;;;36.90;75.90;;;;;;5052644;28;20544;-63
2023/08/18 12:35:08;;;;;;;5.30;2.70;;;37.00;76.90;;;;;;5052639;28;20842;-63
2023/08/18 12:37:35;;;;;;;3.60;2.63;;;37.10;76.40;;;;;;5052289;28;20453;-66
2023/08/18 12:40:05;;;;;;;3.17;2.80;;;36.90;74.80;;;;;;5052536;28;20450;-63
2023/08/18 12:42:32;;;;;;;3.90;2.80;;;36.60;78.50;;;;;;5052664;28;20462;-63
2023/08/18 12:44:59;;;;;;;3.33;2.67;;;36.70;77.30;;;;;;5052664;28;20453;-67
2023/08/18 12:47:26;;;;;;;4.30;2.80;;;36.60;77.60;;;;;;5051509;28;20450;-66
2023/08/18 12:49:53;;;;;;;3.73;2.57;;;36.60;79.40;;;;;;5052478;28;20492;-65
2023/08/18 12:52:21;;;;;;;2.93;2.60;;;36.70;77.70;;;;;;5052283;28;20477;-66